sensor_id;sensor_type;location;lat;lon;timestamp;temperature;humidity
23591;DHT22;11973;52.098;7.582;2023-02-28T04:45:48;-3.00;99.90
23591;DHT22;11973;52.098;7.582;2023-02-28T04:48:14;-3.00;99.90
23591;DHT22;11973;52.098;7.582;2023-02-28T04:50:40;-3.00;99.90
23591;DHT22;11973;52.098;7.582;2023-02-28T04:53:06;-3.10;99.90
23591;DHT22;11973;52.098;7.582;2023-02-28T04:55:32;-3.10;99.90
23591;DHT22;11973;52.098;7.582;2023-02-28T04:57:57;-3.10;99.90
23591;DHT22;11973;52.098;7.582;2023-02-28T05:00:23;-3.10;99.90
23591;DHT22;11973;52.098;7.582;2023-02-28T05:02:49;-3.20;99.90
23591;DHT22;11973;52.098;7.582;2023-02-28T05:05:15;-3.20;99.90
23591;DHT22;11973;52.098;7.582;2023-02-28T05:07:44;-3.20;99.90
23591;DHT22;11973;52.098;7.582;2023-02-28T05:10:10;-3.30;99.90
23591;DHT22;11973;52.098;7.582;2023-02-28T05:12:36;-3.30;99.90
23591;DHT22;11973;52.098;7.582;2023-02-28T05:15:03;-3.30;99.90
23591;DHT22;11973;52.098;7.582;2023-02-28T05:17:30;-3.30;99.90
23591;DHT22;11973;52.098;7.582;2023-02-28T05:19:56;-3.40;99.90
23591;DHT22;11973;52.098;7.582;2023-02-28T05:22:22;-3.40;99.90
23591;DHT22;11973;52.098;7.582;2023-02-28T05:24:48;-3.40;99.90
23591;DHT22;11973;52.098;7.582;2023-02-28T05:27:13;-3.40;99.90
23591;DHT22;11973;52.098;7.582;2023-02-28T05:29:40;-3.40;99.90
23591;DHT22;11973;52.098;7.582;2023-02-28T05:32:11;-3.50;99.90
23591;DHT22;11973;52.098;7.582;2023-02-28T05:34:41;-3.50;99.90
23591;DHT22;11973;52.098;7.582;2023-02-28T05:37:14;-3.50;99.90
23591;DHT22;11973;52.098;7.582;2023-02-28T05:39:41;-3.50;99.90
23591;DHT22;11973;52.098;7.582;2023-02-28T05:42:07;-3.50;99.90
23591;DHT22;11973;52.098;7.582;2023-02-28T05:44:36;-3.50;99.90
23591;DHT22;11973;52.098;7.582;2023-02-28T05:47:01;-3.40;99.90
23591;DHT22;11973;52.098;7.582;2023-02-28T05:49:27;-3.40;99.90
23591;DHT22;11973;52.098;7.582;2023-02-28T05:51:54;-3.40;99.90
23591;DHT22;11973;52.098;7.582;2023-02-28T05:54:20;-3.30;99.90
23591;DHT22;11973;52.098;7.582;2023-02-28T05:56:46;-3.30;99.90
23591;DHT22;11973;52.098;7.582;2023-02-28T05:59:12;-3.30;99.90
23591;DHT22;11973;52.098;7.582;2023-02-28T06:01:40;-3.20;99.90
23591;DHT22;11973;52.098;7.582;2023-02-28T06:04:09;-3.20;99.90
23591;DHT22;11973;52.098;7.582;2023-02-28T06:06:35;-3.20;99.90
23591;DHT22;11973;52.098;7.582;2023-02-28T06:09:03;-3.20;99.90
23591;DHT22;11973;52.098;7.582;2023-02-28T06:11:29;-3.20;99.90
23591;DHT22;11973;52.098;7.582;2023-02-28T06:13:56;-3.20;99.90
23591;DHT22;11973;52.098;7.582;2023-02-28T06:16:24;-3.30;99.90
23591;DHT22;11973;52.098;7.582;2023-02-28T06:18:50;-3.30;99.90
23591;DHT22;11973;52.098;7.582;2023-02-28T06:21:16;-3.30;99.90
23591;DHT22;11973;52.098;7.582;2023-02-28T06:23:42;-3.40;99.90
23591;DHT22;11973;52.098;7.582;2023-02-28T06:26:07;-3.40;99.90
23591;DHT22;11973;52.098;7.582;2023-02-28T06:28:33;-3.40;99.90
23591;DHT22;11973;52.098;7.582;2023-02-28T06:31:04;-3.40;99.90
23591;DHT22;11973;52.098;7.582;2023-02-28T06:33:30;-3.50;99.90
23591;DHT22;11973;52.098;7.582;2023-02-28T06:35:56;-3.50;99.90
23591;DHT22;11973;52.098;7.582;2023-02-28T06:38:21;-3.50;99.90
23591;DHT22;11973;52.098;7.582;2023-02-28T06:40:55;-3.50;99.90
23591;DHT22;11973;52.098;7.582;2023-02-28T06:43:21;-3.50;99.90
23591;DHT22;11973;52.098;7.582;2023-02-28T06:45:47;-3.60;99.90
23591;DHT22;11973;52.098;7.582;2023-02-28T06:48:13;-3.50;99.90
23591;DHT22;11973;52.098;7.582;2023-02-28T06:50:39;-3.50;99.90
23591;DHT22;11973;52.098;7.582;2023-02-28T06:53:05;-3.50;99.90
23591;DHT22;11973;52.098;7.582;2023-02-28T06:55:31;-3.50;99.90
23591;DHT22;11973;52.098;7.582;2023-02-28T06:57:57;-3.50;99.90
23591;DHT22;11973;52.098;7.582;2023-02-28T07:00:23;-3.50;99.90
23591;DHT22;11973;52.098;7.582;2023-02-28T07:02:50;-3.50;99.90
23591;DHT22;11973;52.098;7.582;2023-02-28T07:05:16;-3.50;99.90
23591;DHT22;11973;52.098;7.582;2023-02-28T07:07:41;-3.50;99.90
23591;DHT22;11973;52.098;7.582;2023-02-28T07:10:13;-3.40;99.90
23591;DHT22;11973;52.098;7.582;2023-02-28T07:12:42;-3.40;99.90
23591;DHT22;11973;52.098;7.582;2023-02-28T07:15:09;-3.30;99.90
23591;DHT22;11973;52.098;7.582;2023-02-28T07:17:35;-3.30;99.90
23591;DHT22;11973;52.098;7.582;2023-02-28T07:20:01;-3.20;99.90
23591;DHT22;11973;52.098;7.582;2023-02-28T07:22:26;-3.20;99.90
23591;DHT22;11973;52.098;7.582;2023-02-28T07:24:53;-3.20;99.90
23591;DHT22;11973;52.098;7.582;2023-02-28T07:27:19;-3.10;99.90
23591;DHT22;11973;52.098;7.582;2023-02-28T07:29:52;-3.10;99.90
23591;DHT22;11973;52.098;7.582;2023-02-28T07:32:19;-3.00;99.90
23591;DHT22;11973;52.098;7.582;2023-02-28T07:34:45;-3.00;99.90
23591;DHT22;11973;52.098;7.582;2023-02-28T07:37:11;-2.90;99.90
23591;DHT22;11973;52.098;7.582;2023-02-28T07:39:37;-2.70;99.90
23591;DHT22;11973;52.098;7.582;2023-02-28T07:42:05;-2.90;99.90
23591;DHT22;11973;52.098;7.582;2023-02-28T07:44:32;-2.70;99.90
23591;DHT22;11973;52.098;7.582;2023-02-28T07:46:58;-2.70;99.90
23591;DHT22;11973;52.098;7.582;2023-02-28T07:49:24;-2.70;99.90
23591;DHT22;11973;52.098;7.582;2023-02-28T07:51:49;-2.60;99.90
23591;DHT22;11973;52.098;7.582;2023-02-28T07:54:15;-2.60;99.90
23591;DHT22;11973;52.098;7.582;2023-02-28T07:56:41;-2.50;99.90
23591;DHT22;11973;52.098;7.582;2023-02-28T07:59:06;-2.40;99.90
23591;DHT22;11973;52.098;7.582;2023-02-28T08:01:32;-2.40;99.90
23591;DHT22;11973;52.098;7.582;2023-02-28T08:03:58;-2.30;99.90
23591;DHT22;11973;52.098;7.582;2023-02-28T08:06:25;-2.20;99.90
23591;DHT22;11973;52.098;7.582;2023-02-28T08:08:52;-2.10;99.90
23591;DHT22;11973;52.098;7.582;2023-02-28T08:11:19;-2.00;99.90
23591;DHT22;11973;52.098;7.582;2023-02-28T08:13:45;-2.00;99.90
23591;DHT22;11973;52.098;7.582;2023-02-28T08:16:13;-1.90;99.90
23591;DHT22;11973;52.098;7.582;2023-02-28T08:18:53;-1.80;99.90
23591;DHT22;11973;52.098;7.582;2023-02-28T08:21:19;-1.70;99.90
23591;DHT22;11973;52.098;7.582;2023-02-28T08:23:49;-1.70;99.90
23591;DHT22;11973;52.098;7.582;2023-02-28T08:26:17;-1.60;99.90
23591;DHT22;11973;52.098;7.582;2023-02-28T08:28:43;-1.50;99.90
23591;DHT22;11973;52.098;7.582;2023-02-28T08:31:11;-1.40;99.90
23591;DHT22;11973;52.098;7.582;2023-02-28T08:33:39;-1.30;99.90
23591;DHT22;11973;52.098;7.582;2023-02-28T08:36:06;-1.30;99.90
23591;DHT22;11973;52.098;7.582;2023-02-28T08:38:32;-1.20;99.90
23591;DHT22;11973;52.098;7.582;2023-02-28T08:41:03;-1.10;99.90
23591;DHT22;11973;52.098;7.582;2023-02-28T08:43:29;-1.00;99.90
23591;DHT22;11973;52.098;7.582;2023-02-28T08:45:55;-0.90;99.90
23591;DHT22;11973;52.098;7.582;2023-02-28T08:48:26;-0.90;99.90
23591;DHT22;11973;52.098;7.582;2023-02-28T08:51:06;-0.80;99.90
23591;DHT22;11973;52.098;7.582;2023-02-28T08:53:33;-0.70;99.90
23591;DHT22;11973;52.098;7.582;2023-02-28T08:56:08;-0.60;99.90
23591;DHT22;11973;52.098;7.582;2023-02-28T08:58:35;-0.50;99.90
23591;DHT22;11973;52.098;7.582;2023-02-28T09:01:07;-0.50;99.90
23591;DHT22;11973;52.098;7.582;2023-02-28T09:03:33;-0.30;99.90
23591;DHT22;11973;52.098;7.582;2023-02-28T09:06:00;-0.30;99.90
23591;DHT22;11973;52.098;7.582;2023-02-28T09:08:27;-0.20;99.90
23591;DHT22;11973;52.098;7.582;2023-02-28T09:10:54;-0.10;99.90
23591;DHT22;11973;52.098;7.582;2023-02-28T09:13:23;-0.10;99.90
23591;DHT22;11973;52.098;7.582;2023-02-28T09:15:48;0.00;99.90
23591;DHT22;11973;52.098;7.582;2023-02-28T09:18:15;0.10;99.90
23591;DHT22;11973;52.098;7.582;2023-02-28T09:20:41;0.10;99.90
23591;DHT22;11973;52.098;7.582;2023-02-28T09:23:08;0.20;99.90
23591;DHT22;11973;52.098;7.582;2023-02-28T09:25:35;0.30;99.90
23591;DHT22;11973;52.098;7.582;2023-02-28T09:28:01;0.40;99.90
23591;DHT22;11973;52.098;7.582;2023-02-28T09:30:27;0.60;99.90
23591;DHT22;11973;52.098;7.582;2023-02-28T09:32:52;0.50;99.90
23591;DHT22;11973;52.098;7.582;2023-02-28T09:35:23;0.60;99.90
23591;DHT22;11973;52.098;7.582;2023-02-28T09:37:51;0.60;99.90
23591;DHT22;11973;52.098;7.582;2023-02-28T09:40:22;0.80;99.90
23591;DHT22;11973;52.098;7.582;2023-02-28T09:42:51;0.80;99.90
23591;DHT22;11973;52.098;7.582;2023-02-28T09:45:22;0.90;99.90
23591;DHT22;11973;52.098;7.582;2023-02-28T09:47:48;1.00;99.90
23591;DHT22;11973;52.098;7.582;2023-02-28T09:50:53;1.00;99.90
23591;DHT22;11973;52.098;7.582;2023-02-28T09:53:37;1.10;99.90
23591;DHT22;11973;52.098;7.582;2023-02-28T09:56:10;1.20;99.90
23591;DHT22;11973;52.098;7.582;2023-02-28T09:58:44;1.30;99.90
23591;DHT22;11973;52.098;7.582;2023-02-28T10:01:39;1.40;99.90
23591;DHT22;11973;52.098;7.582;2023-02-28T10:07:41;1.50;99.90
23591;DHT22;11973;52.098;7.582;2023-02-28T10:10:24;1.60;99.90
23591;DHT22;11973;52.098;7.582;2023-02-28T10:12:57;1.70;99.90
23591;DHT22;11973;52.098;7.582;2023-02-28T10:15:26;1.70;99.90
23591;DHT22;11973;52.098;7.582;2023-02-28T10:18:14;1.80;99.90
23591;DHT22;11973;52.098;7.582;2023-02-28T10:20:43;1.90;99.90
23591;DHT22;11973;52.098;7.582;2023-02-28T10:25:36;2.00;99.90
23591;DHT22;11973;52.098;7.582;2023-02-28T10:28:11;2.00;99.90
23591;DHT22;11973;52.098;7.582;2023-02-28T10:30:42;2.30;99.90
23591;DHT22;11973;52.098;7.582;2023-02-28T10:35:43;2.20;99.90
23591;DHT22;11973;52.098;7.582;2023-02-28T10:38:19;2.20;99.90
23591;DHT22;11973;52.098;7.582;2023-02-28T10:40:45;2.30;99.90
23591;DHT22;11973;52.098;7.582;2023-02-28T10:46:14;2.40;99.90
23591;DHT22;11973;52.098;7.582;2023-02-28T10:49:06;2.40;99.90
23591;DHT22;11973;52.098;7.582;2023-02-28T10:51:39;2.40;99.90
23591;DHT22;11973;52.098;7.582;2023-02-28T10:54:06;2.50;99.90
23591;DHT22;11973;52.098;7.582;2023-02-28T10:56:40;2.50;99.90
23591;DHT22;11973;52.098;7.582;2023-02-28T11:01:45;2.60;99.90
23591;DHT22;11973;52.098;7.582;2023-02-28T11:04:31;2.60;99.90
23591;DHT22;11973;52.098;7.582;2023-02-28T11:07:20;2.70;99.90
23591;DHT22;11973;52.098;7.582;2023-02-28T11:09:48;2.70;99.90
23591;DHT22;11973;52.098;7.582;2023-02-28T11:12:36;2.80;99.90
23591;DHT22;11973;52.098;7.582;2023-02-28T11:15:21;2.80;99.90
23591;DHT22;11973;52.098;7.582;2023-02-28T11:17:57;2.90;99.90
23591;DHT22;11973;52.098;7.582;2023-02-28T11:20:27;2.90;99.90
23591;DHT22;11973;52.098;7.582;2023-02-28T11:22:53;2.90;99.90
23591;DHT22;11973;52.098;7.582;2023-02-28T11:25:32;2.90;99.90
23591;DHT22;11973;52.098;7.582;2023-02-28T11:28:03;3.00;99.90
23591;DHT22;11973;52.098;7.582;2023-02-28T11:30:40;3.00;99.90
23591;DHT22;11973;52.098;7.582;2023-02-28T11:33:28;3.10;99.90
23591;DHT22;11973;52.098;7.582;2023-02-28T11:36:01;3.10;99.90
23591;DHT22;11973;52.098;7.582;2023-02-28T11:38:27;3.20;99.90
23591;DHT22;11973;52.098;7.582;2023-02-28T11:49:07;3.30;99.90
23591;DHT22;11973;52.098;7.582;2023-02-28T11:51:47;3.30;99.90
23591;DHT22;11973;52.098;7.582;2023-02-28T11:57:40;3.40;99.90
23591;DHT22;11973;52.098;7.582;2023-02-28T12:05:28;3.60;99.90
23591;DHT22;11973;52.098;7.582;2023-02-28T12:10:29;3.70;99.90
23591;DHT22;11973;52.098;7.582;2023-02-28T12:13:21;3.70;99.90
23591;DHT22;11973;52.098;7.582;2023-02-28T12:29:04;4.00;99.90
23591;DHT22;11973;52.098;7.582;2023-02-28T12:31:55;4.00;99.90
23591;DHT22;11973;52.098;7.582;2023-02-28T12:34:46;4.00;99.90
23591;DHT22;11973;52.098;7.582;2023-02-28T12:37:47;4.10;99.90
23591;DHT22;11973;52.098;7.582;2023-02-28T12:40:19;4.10;99.90
23591;DHT22;11973;52.098;7.582;2023-02-28T12:42:50;4.20;99.90
23591;DHT22;11973;52.098;7.582;2023-02-28T12:45:20;4.20;99.90
23591;DHT22;11973;52.098;7.582;2023-02-28T12:47:52;4.30;99.90
23591;DHT22;11973;52.098;7.582;2023-02-28T12:50:22;4.40;99.90
23591;DHT22;11973;52.098;7.582;2023-02-28T13:09:40;4.70;99.90
23591;DHT22;11973;52.098;7.582;2023-02-28T13:12:14;4.70;99.90
23591;DHT22;11973;52.098;7.582;2023-02-28T13:14:40;4.80;99.90
23591;DHT22;11973;52.098;7.582;2023-02-28T13:19:43;4.80;99.90
23591;DHT22;11973;52.098;7.582;2023-02-28T13:25:01;4.90;99.90
23591;DHT22;11973;52.098;7.582;2023-02-28T13:27:39;4.90;99.90
23591;DHT22;11973;52.098;7.582;2023-02-28T13:38:44;5.10;99.90
23591;DHT22;11973;52.098;7.582;2023-02-28T13:44:10;5.20;99.90
23591;DHT22;11973;52.098;7.582;2023-02-28T14:03:01;5.50;99.90
23591;DHT22;11973;52.098;7.582;2023-02-28T14:05:31;5.50;99.90
23591;DHT22;11973;52.098;7.582;2023-02-28T14:08:01;5.70;99.90
23591;DHT22;11973;52.098;7.582;2023-02-28T14:10:39;6.00;99.90
23591;DHT22;11973;52.098;7.582;2023-02-28T14:16:01;6.50;99.90
23591;DHT22;11973;52.098;7.582;2023-02-28T14:18:35;6.60;99.90
23591;DHT22;11973;52.098;7.582;2023-02-28T14:21:20;6.70;99.90
23591;DHT22;11973;52.098;7.582;2023-02-28T14:32:33;6.80;99.90
23591;DHT22;11973;52.098;7.582;2023-02-28T14:37:48;6.80;99.90
23591;DHT22;11973;52.098;7.582;2023-02-28T14:40:37;6.80;99.90
23591;DHT22;11973;52.098;7.582;2023-02-28T14:43:20;6.70;99.90
23591;DHT22;11973;52.098;7.582;2023-02-28T14:45:55;6.70;99.90
23591;DHT22;11973;52.098;7.582;2023-02-28T14:48:23;6.60;99.90
23591;DHT22;11973;52.098;7.582;2023-02-28T14:50:53;6.70;99.90
23591;DHT22;11973;52.098;7.582;2023-02-28T14:53:21;6.70;99.90
23591;DHT22;11973;52.098;7.582;2023-02-28T14:55:48;7.00;99.90
23591;DHT22;11973;52.098;7.582;2023-02-28T14:58:30;7.30;99.90
23591;DHT22;11973;52.098;7.582;2023-02-28T15:00:59;7.80;99.90
23591;DHT22;11973;52.098;7.582;2023-02-28T15:03:35;8.30;99.90
23591;DHT22;11973;52.098;7.582;2023-02-28T15:06:04;8.90;99.90
23591;DHT22;11973;52.098;7.582;2023-02-28T15:08:31;9.40;99.90
23591;DHT22;11973;52.098;7.582;2023-02-28T15:11:06;9.90;99.90
23591;DHT22;11973;52.098;7.582;2023-02-28T15:13:40;10.40;99.90
23591;DHT22;11973;52.098;7.582;2023-02-28T15:16:31;10.90;99.90
23591;DHT22;11973;52.098;7.582;2023-02-28T15:19:01;11.20;99.90
23591;DHT22;11973;52.098;7.582;2023-02-28T15:21:40;11.50;99.90
23591;DHT22;11973;52.098;7.582;2023-02-28T15:24:10;11.80;99.90
23591;DHT22;11973;52.098;7.582;2023-02-28T15:26:46;12.00;99.90
23591;DHT22;11973;52.098;7.582;2023-02-28T15:29:21;12.30;99.90
23591;DHT22;11973;52.098;7.582;2023-02-28T15:32:01;12.50;99.90
23591;DHT22;11973;52.098;7.582;2023-02-28T15:34:37;12.70;99.90
23591;DHT22;11973;52.098;7.582;2023-02-28T15:39:54;13.00;99.90
23591;DHT22;11973;52.098;7.582;2023-02-28T15:42:22;13.10;99.90
23591;DHT22;11973;52.098;7.582;2023-02-28T15:44:49;13.20;99.90
23591;DHT22;11973;52.098;7.582;2023-02-28T15:47:26;13.30;99.90
23591;DHT22;11973;52.098;7.582;2023-02-28T15:49:58;13.50;99.90
23591;DHT22;11973;52.098;7.582;2023-02-28T15:52:29;13.60;99.90
23591;DHT22;11973;52.098;7.582;2023-02-28T15:54:59;13.60;99.90
23591;DHT22;11973;52.098;7.582;2023-02-28T15:57:32;13.40;99.90
23591;DHT22;11973;52.098;7.582;2023-02-28T16:00:00;13.00;99.90
23591;DHT22;11973;52.098;7.582;2023-02-28T16:02:37;12.60;99.90
23591;DHT22;11973;52.098;7.582;2023-02-28T16:07:40;11.40;99.90
23591;DHT22;11973;52.098;7.582;2023-02-28T16:10:07;10.80;99.90
23591;DHT22;11973;52.098;7.582;2023-02-28T16:12:35;10.30;99.90
23591;DHT22;11973;52.098;7.582;2023-02-28T16:15:06;9.90;99.90
23591;DHT22;11973;52.098;7.582;2023-02-28T16:17:38;9.70;99.90
23591;DHT22;11973;52.098;7.582;2023-02-28T16:20:18;9.60;99.90
23591;DHT22;11973;52.098;7.582;2023-02-28T16:22:44;9.60;99.90
23591;DHT22;11973;52.098;7.582;2023-02-28T16:25:20;9.30;99.90
23591;DHT22;11973;52.098;7.582;2023-02-28T16:27:51;9.00;99.90
23591;DHT22;11973;52.098;7.582;2023-02-28T16:30:29;8.70;99.90
23591;DHT22;11973;52.098;7.582;2023-02-28T16:32:57;8.40;99.90
23591;DHT22;11973;52.098;7.582;2023-02-28T16:35:24;8.00;99.90
23591;DHT22;11973;52.098;7.582;2023-02-28T16:37:53;7.70;99.90
23591;DHT22;11973;52.098;7.582;2023-02-28T16:40:22;7.40;99.90
23591;DHT22;11973;52.098;7.582;2023-02-28T16:42:53;7.10;99.90
23591;DHT22;11973;52.098;7.582;2023-02-28T16:45:25;7.10;99.90
23591;DHT22;11973;52.098;7.582;2023-02-28T16:47:52;6.60;99.90
23591;DHT22;11973;52.098;7.582;2023-02-28T16:50:20;6.60;99.90
23591;DHT22;11973;52.098;7.582;2023-02-28T16:52:46;6.20;99.70
23591;DHT22;11973;52.098;7.582;2023-02-28T16:55:13;6.10;99.60
23591;DHT22;11973;52.098;7.582;2023-02-28T16:57:39;5.80;99.40
23591;DHT22;11973;52.098;7.582;2023-02-28T17:00:06;5.80;99.60
23591;DHT22;11973;52.098;7.582;2023-02-28T17:02:34;5.40;99.20
23591;DHT22;11973;52.098;7.582;2023-02-28T17:05:00;5.20;99.10
23591;DHT22;11973;52.098;7.582;2023-02-28T17:07:26;5.10;99.00
23591;DHT22;11973;52.098;7.582;2023-02-28T17:09:51;4.90;99.20
23591;DHT22;11973;52.098;7.582;2023-02-28T17:12:17;5.00;99.20
23591;DHT22;11973;52.098;7.582;2023-02-28T17:14:43;4.70;99.00
23591;DHT22;11973;52.098;7.582;2023-02-28T17:17:17;4.50;98.60
23591;DHT22;11973;52.098;7.582;2023-02-28T17:19:43;4.40;98.80
23591;DHT22;11973;52.098;7.582;2023-02-28T17:22:10;4.20;98.50
23591;DHT22;11973;52.098;7.582;2023-02-28T17:24:35;4.10;98.40
23591;DHT22;11973;52.098;7.582;2023-02-28T17:27:01;4.20;98.40
23591;DHT22;11973;52.098;7.582;2023-02-28T17:29:27;3.90;98.20
23591;DHT22;11973;52.098;7.582;2023-02-28T17:31:53;3.80;98.20
23591;DHT22;11973;52.098;7.582;2023-02-28T17:34:19;3.70;98.10
23591;DHT22;11973;52.098;7.582;2023-02-28T17:36:50;3.60;98.10
23591;DHT22;11973;52.098;7.582;2023-02-28T17:39:17;3.70;98.10
23591;DHT22;11973;52.098;7.582;2023-02-28T17:41:54;3.40;98.00
23591;DHT22;11973;52.098;7.582;2023-02-28T17:44:20;3.30;98.00
23591;DHT22;11973;52.098;7.582;2023-02-28T17:46:47;3.20;97.90
23591;DHT22;11973;52.098;7.582;2023-02-28T17:49:13;3.30;97.90
23591;DHT22;11973;52.098;7.582;2023-02-28T17:51:39;3.00;97.80
23591;DHT22;11973;52.098;7.582;2023-02-28T17:54:04;2.90;97.80
23591;DHT22;11973;52.098;7.582;2023-02-28T17:56:30;2.80;97.80
23591;DHT22;11973;52.098;7.582;2023-02-28T17:58:56;3.00;98.00
23591;DHT22;11973;52.098;7.582;2023-02-28T18:01:23;2.90;98.30
23591;DHT22;11973;52.098;7.582;2023-02-28T18:03:53;2.60;98.20
23591;DHT22;11973;52.098;7.582;2023-02-28T18:06:23;2.50;97.90
23591;DHT22;11973;52.098;7.582;2023-02-28T18:08:50;2.50;97.90
23591;DHT22;11973;52.098;7.582;2023-02-28T18:11:20;2.40;97.80
23591;DHT22;11973;52.098;7.582;2023-02-28T18:13:48;2.40;97.90
23591;DHT22;11973;52.098;7.582;2023-02-28T18:16:15;2.30;97.90
23591;DHT22;11973;52.098;7.582;2023-02-28T18:18:41;2.30;97.90
23591;DHT22;11973;52.098;7.582;2023-02-28T18:21:08;2.20;97.90
23591;DHT22;11973;52.098;7.582;2023-02-28T18:23:35;2.20;97.90
23591;DHT22;11973;52.098;7.582;2023-02-28T18:26:01;2.10;97.90
23591;DHT22;11973;52.098;7.582;2023-02-28T18:28:26;2.10;97.90
23591;DHT22;11973;52.098;7.582;2023-02-28T18:30:52;2.00;97.90
23591;DHT22;11973;52.098;7.582;2023-02-28T18:33:18;2.00;97.90
23591;DHT22;11973;52.098;7.582;2023-02-28T18:35:44;2.00;98.10
23591;DHT22;11973;52.098;7.582;2023-02-28T18:38:13;1.90;98.00
23591;DHT22;11973;52.098;7.582;2023-02-28T18:40:40;1.90;98.00
23591;DHT22;11973;52.098;7.582;2023-02-28T18:43:07;1.80;97.90
23591;DHT22;11973;52.098;7.582;2023-02-28T18:45:37;1.80;97.90
23591;DHT22;11973;52.098;7.582;2023-02-28T18:48:06;1.80;98.20
23591;DHT22;11973;52.098;7.582;2023-02-28T18:50:37;1.70;97.90
23591;DHT22;11973;52.098;7.582;2023-02-28T18:53:03;1.60;97.80
23591;DHT22;11973;52.098;7.582;2023-02-28T18:55:30;1.50;97.80
23591;DHT22;11973;52.098;7.582;2023-02-28T18:57:56;1.50;97.80
23591;DHT22;11973;52.098;7.582;2023-02-28T19:00:23;1.60;97.90
23591;DHT22;11973;52.098;7.582;2023-02-28T19:02:51;1.40;97.80
23591;DHT22;11973;52.098;7.582;2023-02-28T19:05:18;1.30;97.80
23591;DHT22;11973;52.098;7.582;2023-02-28T19:07:44;1.20;97.80
23591;DHT22;11973;52.098;7.582;2023-02-28T19:10:11;1.20;97.80
23591;DHT22;11973;52.098;7.582;2023-02-28T19:12:38;1.10;97.90
23591;DHT22;11973;52.098;7.582;2023-02-28T19:15:07;1.10;98.00
23591;DHT22;11973;52.098;7.582;2023-02-28T19:17:33;1.00;98.00
23591;DHT22;11973;52.098;7.582;2023-02-28T19:19:59;1.00;98.00
23591;DHT22;11973;52.098;7.582;2023-02-28T19:22:25;0.90;98.00
23591;DHT22;11973;52.098;7.582;2023-02-28T19:24:51;0.90;98.10
23591;DHT22;11973;52.098;7.582;2023-02-28T19:27:17;0.80;98.10
23591;DHT22;11973;52.098;7.582;2023-02-28T19:29:47;0.80;98.10
23591;DHT22;11973;52.098;7.582;2023-02-28T19:32:14;0.70;98.10
23591;DHT22;11973;52.098;7.582;2023-02-28T19:34:40;0.70;98.10
23591;DHT22;11973;52.098;7.582;2023-02-28T19:37:07;0.60;98.40
23591;DHT22;11973;52.098;7.582;2023-02-28T19:39:33;0.60;98.10
23591;DHT22;11973;52.098;7.582;2023-02-28T19:42:14;0.60;98.10
23591;DHT22;11973;52.098;7.582;2023-02-28T19:44:43;0.50;98.10
23591;DHT22;11973;52.098;7.582;2023-02-28T19:47:10;0.50;98.20
23591;DHT22;11973;52.098;7.582;2023-02-28T19:49:36;0.40;98.20
23591;DHT22;11973;52.098;7.582;2023-02-28T19:52:03;0.40;98.20
23591;DHT22;11973;52.098;7.582;2023-02-28T19:54:29;0.00;98.10
23591;DHT22;11973;52.098;7.582;2023-02-28T19:56:55;0.30;98.20
23591;DHT22;11973;52.098;7.582;2023-02-28T19:59:27;0.30;98.30
23591;DHT22;11973;52.098;7.582;2023-02-28T20:01:53;0.20;98.30
23591;DHT22;11973;52.098;7.582;2023-02-28T20:04:21;0.20;98.30
23591;DHT22;11973;52.098;7.582;2023-02-28T20:06:48;0.40;98.60
23591;DHT22;11973;52.098;7.582;2023-02-28T20:09:13;0.10;98.40
23591;DHT22;11973;52.098;7.582;2023-02-28T20:11:41;0.10;98.40
23591;DHT22;11973;52.098;7.582;2023-02-28T20:14:07;0.10;98.50
23591;DHT22;11973;52.098;7.582;2023-02-28T20:16:33;0.00;98.40
23591;DHT22;11973;52.098;7.582;2023-02-28T20:18:59;0.10;98.60
23591;DHT22;11973;52.098;7.582;2023-02-28T20:21:25;0.00;98.60
23591;DHT22;11973;52.098;7.582;2023-02-28T20:23:51;0.00;98.60
23591;DHT22;11973;52.098;7.582;2023-02-28T20:26:17;-0.10;98.60
23591;DHT22;11973;52.098;7.582;2023-02-28T20:28:45;-0.10;98.60
23591;DHT22;11973;52.098;7.582;2023-02-28T20:31:16;-0.10;98.60
23591;DHT22;11973;52.098;7.582;2023-02-28T20:33:42;-0.10;98.60
23591;DHT22;11973;52.098;7.582;2023-02-28T20:36:08;-0.10;98.70
23591;DHT22;11973;52.098;7.582;2023-02-28T20:38:35;-0.20;98.70
23591;DHT22;11973;52.098;7.582;2023-02-28T20:41:02;-0.20;98.80
23591;DHT22;11973;52.098;7.582;2023-02-28T20:43:28;-0.20;98.80
23591;DHT22;11973;52.098;7.582;2023-02-28T20:45:57;-0.30;98.90
23591;DHT22;11973;52.098;7.582;2023-02-28T20:48:23;-0.30;98.90
23591;DHT22;11973;52.098;7.582;2023-02-28T20:50:50;-0.30;99.00
23591;DHT22;11973;52.098;7.582;2023-02-28T20:53:17;-0.30;99.00
23591;DHT22;11973;52.098;7.582;2023-02-28T20:55:54;-0.30;99.00
23591;DHT22;11973;52.098;7.582;2023-02-28T20:58:20;-0.20;99.00
23591;DHT22;11973;52.098;7.582;2023-02-28T21:00:49;-0.40;99.00
23591;DHT22;11973;52.098;7.582;2023-02-28T21:03:14;-0.20;99.20
23591;DHT22;11973;52.098;7.582;2023-02-28T21:05:40;-0.40;99.10
23591;DHT22;11973;52.098;7.582;2023-02-28T21:08:06;-0.40;99.20
23591;DHT22;11973;52.098;7.582;2023-02-28T21:10:32;-0.40;99.10
23591;DHT22;11973;52.098;7.582;2023-02-28T21:12:57;-0.50;99.10
23591;DHT22;11973;52.098;7.582;2023-02-28T21:15:24;-0.50;99.10
23591;DHT22;11973;52.098;7.582;2023-02-28T21:17:50;-0.50;99.00
23591;DHT22;11973;52.098;7.582;2023-02-28T21:20:16;-0.50;99.00
23591;DHT22;11973;52.098;7.582;2023-02-28T21:22:50;-0.50;99.00
23591;DHT22;11973;52.098;7.582;2023-02-28T21:25:17;-0.60;99.10
23591;DHT22;11973;52.098;7.582;2023-02-28T21:27:43;-0.60;99.00
23591;DHT22;11973;52.098;7.582;2023-02-28T21:30:09;-0.60;99.00
23591;DHT22;11973;52.098;7.582;2023-02-28T21:32:35;-0.70;99.10
23591;DHT22;11973;52.098;7.582;2023-02-28T21:35:01;-0.70;99.10
23591;DHT22;11973;52.098;7.582;2023-02-28T21:37:27;-0.70;99.10
23591;DHT22;11973;52.098;7.582;2023-02-28T21:39:53;-0.70;99.10
23591;DHT22;11973;52.098;7.582;2023-02-28T21:42:19;-0.70;99.10
23591;DHT22;11973;52.098;7.582;2023-02-28T21:44:45;-0.80;99.10
23591;DHT22;11973;52.098;7.582;2023-02-28T21:47:11;-0.80;99.10
23591;DHT22;11973;52.098;7.582;2023-02-28T21:49:36;-0.80;99.50
23591;DHT22;11973;52.098;7.582;2023-02-28T21:52:04;-0.90;99.20
23591;DHT22;11973;52.098;7.582;2023-02-28T21:54:29;-0.90;99.20
23591;DHT22;11973;52.098;7.582;2023-02-28T21:56:55;-0.90;99.20
23591;DHT22;11973;52.098;7.582;2023-02-28T21:59:21;-1.00;99.20
23591;DHT22;11973;52.098;7.582;2023-02-28T22:01:49;-1.00;99.20
23591;DHT22;11973;52.098;7.582;2023-02-28T22:04:17;-1.00;99.30
23591;DHT22;11973;52.098;7.582;2023-02-28T22:06:56;-1.00;99.70
23591;DHT22;11973;52.098;7.582;2023-02-28T22:09:22;-1.10;99.30
23591;DHT22;11973;52.098;7.582;2023-02-28T22:11:48;-1.00;99.30
23591;DHT22;11973;52.098;7.582;2023-02-28T22:14:14;-1.10;99.30
23591;DHT22;11973;52.098;7.582;2023-02-28T22:16:40;-1.10;99.30
23591;DHT22;11973;52.098;7.582;2023-02-28T22:19:06;-1.20;99.50
23591;DHT22;11973;52.098;7.582;2023-02-28T22:21:37;-1.20;99.30
23591;DHT22;11973;52.098;7.582;2023-02-28T22:24:05;-1.20;99.30
23591;DHT22;11973;52.098;7.582;2023-02-28T22:26:31;-1.20;99.30
23591;DHT22;11973;52.098;7.582;2023-02-28T22:28:57;-1.20;99.40
23591;DHT22;11973;52.098;7.582;2023-02-28T22:31:24;-1.30;99.70